地図

経路データ

SID SEASON NUMBER BASIN SUBBASIN NAME ISO_TIME NATURE LAT LON WMO_WIND WMO_PRES WMO_AGENCY TRACK_TYPE DIST2LAND LANDFALL IFLAG USA_AGENCY USA_ATCF_ID USA_LAT USA_LON USA_RECORD USA_STATUS USA_WIND USA_PRES USA_SSHS USA_R34_NE USA_R34_SE USA_R34_SW USA_R34_NW USA_R50_NE USA_R50_SE USA_R50_SW USA_R50_NW USA_R64_NE USA_R64_SE USA_R64_SW USA_R64_NW USA_POCI USA_ROCI USA_RMW USA_EYE TOKYO_LAT TOKYO_LON TOKYO_GRADE TOKYO_WIND TOKYO_PRES TOKYO_R50_DIR TOKYO_R50_LONG TOKYO_R50_SHORT TOKYO_R30_DIR TOKYO_R30_LONG TOKYO_R30_SHORT TOKYO_LAND CMA_LAT CMA_LON CMA_CAT CMA_WIND CMA_PRES HKO_LAT HKO_LON HKO_CAT HKO_WIND HKO_PRES NEWDELHI_LAT NEWDELHI_LON NEWDELHI_GRADE NEWDELHI_WIND NEWDELHI_PRES NEWDELHI_CI NEWDELHI_DP NEWDELHI_POCI REUNION_LAT REUNION_LON REUNION_TYPE REUNION_WIND REUNION_PRES REUNION_TNUM REUNION_CI REUNION_RMW REUNION_R34_NE REUNION_R34_SE REUNION_R34_SW REUNION_R34_NW REUNION_R50_NE REUNION_R50_SE REUNION_R50_SW REUNION_R50_NW REUNION_R64_NE REUNION_R64_SE REUNION_R64_SW REUNION_R64_NW BOM_LAT BOM_LON BOM_TYPE BOM_WIND BOM_PRES BOM_TNUM BOM_CI BOM_RMW BOM_R34_NE BOM_R34_SE BOM_R34_SW BOM_R34_NW BOM_R50_NE BOM_R50_SE BOM_R50_SW BOM_R50_NW BOM_R64_NE BOM_R64_SE BOM_R64_SW BOM_R64_NW BOM_ROCI BOM_POCI BOM_EYE BOM_POS_METHOD BOM_PRES_METHOD NADI_LAT NADI_LON NADI_CAT NADI_WIND NADI_PRES WELLINGTON_LAT WELLINGTON_LON WELLINGTON_WIND WELLINGTON_PRES DS824_LAT DS824_LON DS824_STAGE DS824_WIND DS824_PRES TD9636_LAT TD9636_LON TD9636_STAGE TD9636_WIND TD9636_PRES TD9635_LAT TD9635_LON TD9635_WIND TD9635_PRES TD9635_ROCI NEUMANN_LAT NEUMANN_LON NEUMANN_CLASS NEUMANN_WIND NEUMANN_PRES MLC_LAT MLC_LON MLC_CLASS MLC_WIND MLC_PRES USA_GUST BOM_GUST BOM_GUST_PER REUNION_GUST REUNION_GUST_PER USA_SEAHGT USA_SEARAD_NE USA_SEARAD_SE USA_SEARAD_SW USA_SEARAD_NW STORM_SPEED STORM_DIR
1991057S10087 1991 9 SI MM ELMA 1991-02-26 00:00:00 TS -10.2500 87.1750 30 1000 bom main 1606 1606 O____OO_____O_ jtwc_sh SH141991 -11.5000 86.1000 20 -1 -10.8000 86.5000 2 20 1003 9.90000 2.00000 -9.40000 88.1000 20 30 1000 2.50000 3 6 -9.30000 88.0000 TC 30 1000 7 145
1991057S10087 1991 9 SI MM ELMA 1991-02-26 03:00:00 TS -10.5513 87.3875 main 1615 1607 P____PP_____P_ SH141991 -11.7275 86.3649 22 -1 -10.7727 87.0201 2 22 1001 -9.87250 88.1400 20 30 1000 -9.83249 88.0250 TC 30 1000 7 142
1991057S10087 1991 9 SI MM ELMA 1991-02-26 06:00:00 TS -10.8250 87.6250 30 1000 bom main 1612 1600 O____OO_____O_ jtwc_sh SH141991 -11.9000 86.7000 25 -1 -10.8000 87.5000 2 24 1000 9.90000 2.00000 -10.3000 88.2000 20 30 1000 2.50000 3 6 -10.3000 88.1000 TC 30 1000 7 136
1991057S10087 1991 9 SI MM ELMA 1991-02-26 09:00:00 TS -11.0619 87.8969 main 1608 1598 P____PP_____P_ SH141991 -11.9926 87.1426 27 -1 -10.9325 87.9025 2 26 998 -10.6575 88.2925 20 30 1000 -10.6650 88.2500 TC 30 1000 7 134
1991057S10087 1991 9 SI MM ELMA 1991-02-26 12:00:00 TS -11.3250 88.1500 30 1000 bom main 1597 1597 O____OO_____O_ jtwc_sh SH141991 -12.1000 87.6000 30 -1 -11.2000 88.2000 2 28 997 9.90000 2.50000 -11.0000 88.4000 20 30 1000 2.50000 184 3 6 -11.0000 88.4000 TC 30 1000 8 145
1991057S10087 1991 9 SI MM ELMA 1991-02-26 15:00:00 TS -11.6737 88.3369 main 1620 1612 P____PP_____P_ SH141991 -12.3274 87.9725 32 -1 -11.6125 88.4025 2 31 994 -11.3775 88.5075 20 32 997 184 -11.3775 88.4651 TC 35 997 8 157
1991057S10087 1991 9 SI MM ELMA 1991-02-26 18:00:00 TS -12.0750 88.4750 35 995 bom main 1635 1635 O____OO_____O_ jtwc_sh SH141991 -12.6000 88.3000 35 0 -12.1000 88.5000 3 35 992 9.90000 3.00000 -11.8000 88.6000 30 35 995 3.00000 184 3 6 -11.8000 88.5000 TC 40 995 9 163
1991057S10087 1991 9 SI MM ELMA 1991-02-26 21:00:00 TS -12.4888 88.5938 main 1659 1659 P____PP_____P_ SH141991 -12.8125 88.6525 37 0 -12.5500 88.5226 3 37 990 -12.2925 88.6575 30 37 992 202 -12.3000 88.5425 TC 42 992 9 167
1991057S10087 1991 9 SI MM ELMA 1991-02-27 00:00:00 TS -12.9250 88.6750 40 990 bom main 1684 1684 O____OV_____O_ jtwc_sh SH141991 -13.1000 88.9000 40 0 -13.0000 88.5000 3 39 988 9.90000 3.00000 -12.8000 88.7000 30 40 990 3.00000 221 3 6 -12.8000 88.6000 TC 45 990 9 171
1991057S10087 1991 9 SI MM ELMA 1991-02-27 03:00:00 TS -13.3787 88.7406 main 1726 1726 P____PP_____P_ SH141991 -13.5924 88.9900 40 0 -13.4500 88.5075 3 41 986 -13.2650 88.7575 30 40 990 240 -13.2075 88.7074 TC 45 990 9 176
1991057S10087 1991 9 SI MM ELMA 1991-02-27 06:00:00 TS -13.8250 88.7500 40 990 bom main 1753 1753 O____OO_____O_ jtwc_sh SH141991 -14.1000 88.9000 40 0 -13.9000 88.5000 3 44 984 9.90000 3.50000 -13.7000 88.8000 30 40 990 3.00000 259 3 6 -13.6000 88.8000 TC 45 990 9 184
1991057S10087 1991 9 SI MM ELMA 1991-02-27 09:00:00 TS -14.2325 88.6869 main 1794 1794 P____PP_____P_ SH141991 -14.4226 88.6301 42 0 -14.3500 88.4575 3 45 982 -14.1075 88.8225 30 45 987 275 -14.0500 88.8375 TC 50 987 8 192
1991057S10087 1991 9 SI MM ELMA 1991-02-27 12:00:00 TS -14.6250 88.5750 50 985 bom main 1835 1835 O____OO_____O_ jtwc_sh SH141991 -14.7000 88.3000 45 0 -14.8000 88.4000 3 47 981 9.90000 3.50000 -14.5000 88.8000 30 50 985 3.50000 292 3 6 -14.5000 88.8000 TC 55 985 8 196
1991057S10087 1991 9 SI MM ELMA 1991-02-27 15:00:00 TS -15.0344 88.4444 main 1884 1884 P____PP_____P_ SH141991 -15.0425 88.0625 47 0 -15.2725 88.3425 3 49 978 -14.9075 88.7151 30 52 982 262 -14.9150 88.6577 TC 57 982 8 197
1991057S10087 1991 9 SI MM ELMA 1991-02-27 18:00:00 TS -15.4250 88.3250 55 980 bom main 1925 1925 O____OO_____O_ jtwc_sh SH141991 -15.4000 87.9000 50 0 -15.7000 88.3000 3 52 976 9.90000 4.00000 -15.3000 88.6000 30 55 980 4.00000 232 3 6 -15.3000 88.5000 TC 60 980 8 194
1991057S10087 1991 9 SI MM ELMA 1991-02-27 21:00:00 TS -15.7681 88.2543 main 1961 1961 P____PP_____P_ SH141991 -15.7500 87.8125 55 0 -16.0150 88.2925 3 52 976 -15.6500 88.4850 30 55 980 223 -15.6575 88.4274 TC 60 980 7 188
1991057S10087 1991 9 SI MM ELMA 1991-02-28 00:00:00 TS -16.1000 88.2250 55 980 bom main 1994 1994 O____OO_____O_ jtwc_sh SH141991 -16.1000 87.8000 60 0 -16.3000 88.3000 3 52 976 9.90000 4.00000 -16.0000 88.4000 30 55 980 4.00000 215 3 6 -16.0000 88.4000 TC 60 980 7 184
1991057S10087 1991 9 SI MM ELMA 1991-02-28 03:00:00 TS -16.4644 88.2188 main 2030 2030 P____PP_____P_ SH141991 -16.4425 87.8200 60 0 -16.6500 88.2925 3 52 976 -16.4075 88.3775 30 57 977 215 -16.3575 88.3850 TC 65 977 7 179
1991057S10087 1991 9 SI MM ELMA 1991-02-28 06:00:00 TS -16.8250 88.2500 60 975 bom main 2051 2051 O____OO_____O_ jtwc_sh SH141991 -16.8000 87.9000 60 0 -17.0000 88.3000 3 52 976 9.90000 4.00000 -16.8000 88.4000 30 60 975 4.00000 215 3 6 -16.7000 88.4000 TC 70 975 7 173
1991057S10087 1991 9 SI MM ELMA 1991-02-28 09:00:00 TS -17.1519 88.3026 main 2087 2087 P____PP_____P_ SH141991 -17.1925 88.0275 60 0 -17.3000 88.3425 3 52 976 -17.1150 88.4201 30 62 972 210 -17.0000 88.4201 TC 72 972 7 168
1991057S10087 1991 9 SI MM ELMA 1991-02-28 12:00:00 TS -17.4750 88.4000 65 970 bom main 2109 2109 O____OO_____O_ jtwc_sh SH141991 -17.6000 88.2000 60 0 -17.6000 88.4000 3 52 976 9.90000 4.00000 -17.4000 88.5000 40 65 970 4.50000 205 3 6 -17.3000 88.5000 TC 75 970 7 161
1991057S10087 1991 9 SI MM ELMA 1991-02-28 15:00:00 TS -17.8306 88.5512 main 2125 2125 P____PP_____P_ SH141991 -18.0150 88.4074 60 0 -17.9575 88.4425 3 52 976 -17.7000 88.6775 40 67 967 207 -17.6500 88.6774 TC 77 967 8 156
1991057S10087 1991 9 SI MM ELMA 1991-02-28 18:00:00 TS -18.1750 88.7250 70 965 bom main 2157 2151 O____OV_____O_ jtwc_sh SH141991 -18.4000 88.6000 60 0 -18.3000 88.5000 3 52 976 9.90000 4.00000 -18.0000 88.9000 40 70 965 4.50000 210 3 6 -18.0000 88.9000 TC 80 965 7 153
1991057S10087 1991 9 SI MM ELMA 1991-02-28 21:00:00 TS -18.4681 88.8919 main 2174 2174 P____PP_____P_ SH141991 -18.7075 88.7226 57 0 -18.5650 88.5850 3 52 976 -18.2925 89.1299 40 70 965 212 -18.3075 89.1299 TC 80 965 6 154
1991057S10087 1991 9 SI MM ELMA 1991-03-01 00:00:00 TS -18.7500 89.0250 70 965 bom main 2188 2188 O____OO_____O_ jtwc_sh SH141991 -19.0000 88.8000 55 0 -18.8000 88.7000 3 52 976 9.90000 4.00000 -18.6000 89.3000 40 70 965 4.50000 215 3 6 -18.6000 89.3000 TC 80 965 6 163
1991057S10087 1991 9 SI MM ELMA 1991-03-01 03:00:00 TS -19.0531 89.0789 main 2217 2217 P____PP_____P_ SH141991 -19.3575 88.8352 55 0 -19.0425 88.8351 3 52 976 -18.9350 89.3227 40 67 967 280 -18.8775 89.3227 TC 77 967 6 171
1991057S10087 1991 9 SI MM ELMA 1991-03-01 06:00:00 TS -19.3750 89.1250 65 970 bom main 2240 2238 O____OO_____O_ jtwc_sh SH141991 -19.7000 88.9000 55 0 -19.3000 89.0000 3 52 976 9.90000 4.00000 -19.3000 89.3000 40 65 970 4.50000 346 3 6 -19.2000 89.3000 TC 75 970 7 168
1991057S10087 1991 9 SI MM ELMA 1991-03-01 09:00:00 TS -19.7306 89.2275 main 2252 2250 P____PP_____P_ SH141991 -19.9650 89.0700 52 0 -19.6000 89.1999 3 52 976 -19.7075 89.3201 40 65 970 350 -19.6500 89.3201 TC 75 970 7 162
1991057S10087 1991 9 SI MM ELMA 1991-03-01 12:00:00 TS -20.0750 89.3750 65 970 bom main 2263 2261 O____OO_____O_ jtwc_sh SH141991 -20.2000 89.3000 50 0 -19.9000 89.4000 3 52 976 9.90000 4.00000 -20.1000 89.4000 40 65 970 4.50000 355 3 6 -20.1000 89.4000 TC 75 970 7 153
1991057S10087 1991 9 SI MM ELMA 1991-03-01 15:00:00 TS -20.3594 89.5638 main 2268 2267 P____PP_____P_ SH141991 -20.4350 89.5426 47 0 -20.1499 89.5502 3 54 974 -20.4225 89.5774 40 62 972 331 -20.4300 89.5849 TC 72 972 7 146
1991057S10087 1991 9 SI MM ELMA 1991-03-01 18:00:00 TS -20.6250 89.7750 60 975 bom main 2267 2266 O____OV_____O_ jtwc_sh SH141991 -20.7000 89.8000 45 0 -20.4000 89.7000 3 56 972 9.90000 4.50000 -20.7000 89.8000 30 60 975 4.00000 307 3 6 -20.7000 89.8000 TC 70 975 7 145
1991057S10087 1991 9 SI MM ELMA 1991-03-01 21:00:00 TS -20.9125 89.9788 main 2273 2273 P____PP_____P_ SH141991 -21.0425 90.0649 45 0 -20.7000 89.8999 3 59 969 -20.9500 90.0001 30 60 975 283 -20.9574 89.9501 TC 70 975 7 147
1991057S10087 1991 9 SI WA ELMA 1991-03-02 00:00:00 TS -21.2000 90.1750 60 975 bom main 2280 2280 O____OO_____O_ jtwc_sh SH141991 -21.4000 90.3000 45 0 -21.0000 90.1000 3 62 966 9.90000 4.50000 -21.2000 90.2000 30 60 975 4.00000 259 3 6 -21.2000 90.1000 TC 70 975 7 148
1991057S10087 1991 9 SI WA ELMA 1991-03-02 03:00:00 TS -21.4731 90.3501 main 2288 2288 P____PP_____P_ SH141991 -21.7149 90.4577 45 0 -21.2425 90.2577 3 62 966 -21.4925 90.4001 30 57 977 210 -21.4425 90.2851 TC 65 977 6 149
1991057S10087 1991 9 SI WA ELMA 1991-03-02 06:00:00 TS -21.7500 90.5250 55 980 bom main 2297 2297 O____OO_____O_ jtwc_sh SH141991 -22.0000 90.6000 45 0 -21.5000 90.4000 3 62 966 9.90000 4.50000 -21.8000 90.6000 30 55 980 4.00000 161 3 6 -21.7000 90.5000 TC 60 980 7 149
1991057S10087 1991 9 SI WA ELMA 1991-03-02 09:00:00 TS -22.0443 90.7139 main 2306 2305 P____PP_____P_ SH141991 -22.2650 90.7851 45 0 -21.8275 90.5426 3 60 968 -22.0999 90.7852 30 52 982 139 -21.9850 90.7426 TC 57 982 7 148
1991057S10087 1991 9 SI WA ELMA 1991-03-02 12:00:00 TS -22.3500 90.9250 50 985 bom main 2303 2278 O____OO_____O_ jtwc_sh SH141991 -22.5000 91.0000 45 0 -22.2000 90.7000 3 58 970 9.90000 4.00000 -22.4000 91.0000 30 50 985 3.50000 118 3 6 -22.3000 91.0000 TC 55 985 7 146
1991057S10087 1991 9 SI WA ELMA 1991-03-02 15:00:00 TS -22.6624 91.1583 main 2265 2237 P____PP_____P_ SH141991 -22.6925 91.2352 45 0 -22.5923 90.8554 3 55 973 -22.7076 91.2924 30 45 987 151 -22.6575 91.2500 TC 50 987 8 144
1991057S10087 1991 9 SI WA ELMA 1991-03-02 18:00:00 TS -22.9750 91.4250 40 990 bom main 2237 2200 O____OO_____O_ jtwc_sh SH141991 -22.9000 91.5000 45 0 -23.0000 91.1000 3 52 976 9.90000 4.00000 -23.0000 91.6000 30 40 990 3.00000 184 3 6 -23.0000 91.5000 TC 45 990 8 141
1991057S10087 1991 9 SI WA ELMA 1991-03-02 21:00:00 TS -23.2672 91.6873 main 2200 2163 P____PP_____P_ SH141991 -23.1700 91.7926 42 0 -23.4149 91.4900 3 49 978 -23.2344 91.7909 30 40 990 215 -23.2494 91.6758 TC 45 990 8 136
1991057S10087 1991 9 SI WA ELMA 1991-03-03 00:00:00 TS -23.5750 92.0500 40 990 bom main 2153 2096 O____OO_____O_ jtwc_sh SH141991 -23.5000 92.1000 40 0 -23.8000 92.0000 3 47 981 9.90000 3.50000 -23.5000 92.1000 30 40 990 3.00000 247 3 6 -23.5000 92.0000 TC 45 990 11 127
1991057S10087 1991 9 SI WA ELMA 1991-03-03 03:00:00 TS -23.9211 92.6204 main 2096 2028 P____PP_____P_ SH141991 -23.8922 92.3703 40 0 -24.1076 92.5854 3 45 982 -23.8710 92.7842 30 37 992 263 -23.8138 92.7419 TC 42 992 13 124
1991057S10087 1991 9 SI WA ELMA 1991-03-03 06:00:00 TS -24.3000 93.2250 35 995 bom main 2028 1971 O____OO_____O_ jtwc_sh SH141991 -24.3000 92.7000 40 0 -24.4000 93.2000 3 44 984 9.90000 3.50000 -24.3000 93.5000 30 35 995 3.00000 280 3 6 -24.2000 93.5000 TC 40 995 13 128
1991057S10087 1991 9 SI WA ELMA 1991-03-03 09:00:00 TS -24.7011 93.7286 main 1971 1925 P____PP_____P_ SH141991 -24.6355 93.2297 37 0 -24.7424 93.7801 3 41 986 -24.7421 93.9773 30 32 997 215 -24.6845 93.9274 TC 35 997 11 137
1991057S10087 1991 9 SI WA ELMA 1991-03-03 12:00:00 TS -25.1250 94.0750 30 1000 bom main 1925 1909 O____OO_____O_ jtwc_sh SH141991 -25.0000 93.7000 35 0 -25.1000 94.3000 3 39 988 9.90000 3.00000 -25.2000 94.2000 20 30 1000 2.50000 151 3 6 -25.2000 94.1000 TC 30 1000 10 152
1991057S10087 1991 9 SI WA ELMA 1991-03-03 15:00:00 TS -25.5642 94.2333 main 1907 1903 P____PP_____P_ SH141991 -25.5070 93.9497 35 0 -25.4425 94.7750 3 37 989 -25.6499 94.1331 20 27 1000 129 -25.6574 94.0754 TC 30 1000 9 172
1991057S10087 1991 9 SI WA ELMA 1991-03-03 18:00:00 TS -26.0000 94.2200 25 1000 bom main 1903 1899 O____OO_____O_ jtwc_sh SH141991 -26.0000 93.9000 35 0 -25.8000 95.1000 3 36 991 9.90000 3.00000 -26.1000 93.9000 20 25 1000 2.00000 107 3 6 -26.1000 93.9000 TC 30 1000 9 186
1991057S10087 1991 9 SI WA ELMA 1991-03-03 21:00:00 TS -26.4489 94.1352 main 1909 1907 P____PP_____P_ SH141991 -26.3484 93.5007 35 0 -26.2371 95.2701 3 36 991 -26.5799 93.7225 20 25 1002 102 -26.5799 93.7301 TC 25 1002 9 194
1991057S10087 1991 9 SI WA ELMA 1991-03-04 00:00:00 TS -26.8462 93.9769 25 1005 bom main 1916 1916 O____OO_____O_ jtwc_sh SH141991 -26.6000 92.9000 35 0 -26.6000 95.2000 3 36 991 9.90000 3.00000 -27.0000 93.5000 20 25 1005 1.50000 97 3 6 -27.0000 93.5000 TC 20 1005 8 201
1991057S10087 1991 9 SI WA ELMA 1991-03-04 03:00:00 TS -27.1561 93.8263 main 1935 1935 _____PP_____P_ SH141991 -1 -26.7895 94.9282 3 36 991 -27.3394 93.2753 20 22 1005 97 -27.3394 93.2753 TC 20 1005 7 231
1991057S10087 1991 9 SI WA ELMA 1991-03-04 06:00:00 TS -27.2667 93.4000 20 1005 bom main 1974 1974 _____OO_____O_ -1 -26.8000 94.4000 3 36 991 9.90000 3.00000 -27.5000 92.9000 20 20 1005 1.00000 97 3 6 -27.5000 92.9000 TC 20 1005 10 269
1991057S10087 1991 9 SI WA ELMA 1991-03-04 09:00:00 TS -27.1680 92.7161 main 2043 2043 _____PP_____P_ -1 -26.6376 93.6742 3 33 993 -27.4332 92.2370 20 20 1005 97 -27.4332 92.2370 TC 20 1005 13 284
1991057S10087 1991 9 SI WA ELMA 1991-03-04 12:00:00 TS -26.9333 91.9333 20 1005 bom main 2124 2124 _____OO_____O_ -1 -26.4000 92.8000 2 31 995 9.90000 2.50000 -27.2000 91.5000 20 20 1005 1.00000 97 3 6 -27.2000 91.5000 TC 20 1005 14 290
1991057S10087 1991 9 SI WA ELMA 1991-03-04 15:00:00 TS -26.6929 91.2543 main 2185 2185 _____PP_____P_ -1 -26.2348 91.9076 2 29 996 -26.9220 90.9276 20 20 1005 124 -26.9220 90.9276 TC 20 1005 13 295
1991057S10087 1991 9 SI WA ELMA 1991-03-04 18:00:00 TS -26.4000 90.6400 20 1005 bom main 2256 2256 _____OO_____O_ -1 -26.1000 91.0000 2 28 997 9.90000 2.50000 -26.6000 90.4000 20 20 1005 1.00000 151 3 6 -26.6000 90.4000 TC 20 1005 13 296
1991057S10087 1991 9 SI WA ELMA 1991-03-04 21:00:00 TS -26.1387 90.0036 main 2319 2319 _____PP_____P_ -1 -25.9842 90.1502 2 28 997 -26.2931 89.8570 20 20 1005 151 -26.2931 89.8570 TC 20 1005 13 291
1991057S10087 1991 9 SI MM ELMA 1991-03-05 00:00:00 TS -25.9333 89.3000 20 1005 bom main 2391 2391 _____OO_____O_ -1 -25.9000 89.3000 2 28 997 9.90000 2.50000 -26.0000 89.3000 20 20 1005 1.00000 151 3 6 -26.0000 89.3000 TC 20 1005 15 282
1991057S10087 1991 9 SI MM ELMA 1991-03-05 03:00:00 TS -25.8346 88.4076 main 2482 2482 _____P________ -1 -25.8346 88.4076 2 26 998 20 TC 16 275
1991057S10087 1991 9 SI MM ELMA 1991-03-05 06:00:00 TS -25.8000 87.5000 main 2571 2571 _____O________ -1 -25.8000 87.5000 2 24 1000 9.90000 2.00000 16 271
1991057S10087 1991 9 SI MM ELMA 1991-03-05 09:00:00 TS -25.7935 86.5976 main 2660 2660 _____P________ -1 -25.7935 86.5976 2 22 1002 16 270
1991057S10087 1991 9 SI MM ELMA 1991-03-05 12:00:00 TS -25.8000 85.7000 main 2750 _____O________ -1 -25.8000 85.7000 6 20 1004 9.90000 1.50000 16 270

IBTrACS Databaseについて

本データベースは、米国NOAAが公開する1842年以降の世界の熱帯低気圧のベストトラックデータアーカイブInternational Best Track Archive for Climate Stewardship (IBTrACS)を、ウェブで閲覧しやすい形式に変換したものです。

最終更新日:2021-10-25